Sagres — CTEC — position and weather

sailwx.info

Track history (hours):
 
Tides and Currents Weather Stations Pressure Air Temp Water Temp Dewpoint Dewpoint Depression Visibility Wind Speed Wind Dir Waves Ship Positions

Sagres (Portugal)

Last reported at 2017-Apr-26 14:42 UTC. Time now 2017-Apr-26 15:37 UTC.
Position N 38°42' W 009°10'.

Length 90 m; draft 5 m.

Type: Sailing vessel. MMSI: 263141000.

Date/timePositionNaut miles runAvg speedWind from/ knotsBaromVisibWave heightAir tempDewpointWater temp
2017-Apr-26 14:42N 38°42' W 009°10'0 0.0
2017-Apr-24 14:32N 38°42' W 009°10'0 0.0
2017-Apr-24 14:26N 38°42' W 009°10'2 1.7
2017-Apr-24 13:31N 38°42' W 009°08'3 6.2
2017-Apr-24 13:00N 38°41' W 009°12'5 9.6
2017-Apr-24 12:31N 38°41' W 009°18'5 9.3
2017-Apr-24 12:01N 38°37' W 009°22'2 3.8
2017-Apr-24 11:30N 38°35' W 009°22'1 1.9
2017-Apr-24 11:00N 38°36' W 009°21'2 4.9
2017-Apr-24 10:31N 38°34' W 009°21'3 5.3
2017-Apr-24 10:00N 38°31' W 009°20'2 4.0
2017-Apr-24 09:31N 38°29' W 009°19'3 7.0
2017-Apr-24 09:01N 38°26' W 009°17'4 7.7
2017-Apr-24 08:31N 38°23' W 009°15'4 8.7
2017-Apr-24 08:00N 38°23' W 009°09'3 6.7
2017-Apr-24 07:31N 38°26' W 009°06'0 0.2
2017-Apr-24 06:59N 38°26' W 009°06'0 0.0
2017-Apr-24 06:26N 38°26' W 009°06'0 0.0
2017-Apr-24 05:59N 38°26' W 009°06'0 0.0
2017-Apr-24 05:29N 38°26' W 009°06'0 0.0
2017-Apr-24 04:59N 38°26' W 009°06'0 0.0
2017-Apr-24 04:29N 38°26' W 009°06'0 0.0
2017-Apr-24 03:56N 38°26' W 009°06'0 0.0
2017-Apr-24 03:29N 38°26' W 009°06'0 0.0
2017-Apr-24 02:56N 38°26' W 009°06'0 0.0
2017-Apr-24 02:29N 38°26' W 009°06'0 0.0
2017-Apr-24 01:59N 38°26' W 009°06'0 0.0
2017-Apr-24 01:29N 38°26' W 009°06'0 0.0
2017-Apr-24 00:59N 38°26' W 009°06'0 0.0
2017-Apr-24 00:29N 38°26' W 009°06'0 0.0
2017-Apr-23 23:56N 38°26' W 009°06'0 0.0
2017-Apr-23 23:29N 38°26' W 009°06'0 0.1
2017-Apr-23 22:59N 38°26' W 009°06'0 0.0
2017-Apr-23 22:29N 38°26' W 009°06'0 0.0
2017-Apr-23 21:56N 38°26' W 009°06'0 0.1
2017-Apr-23 21:29N 38°26' W 009°06'0 0.0
2017-Apr-23 20:59N 38°26' W 009°06'0 0.0
2017-Apr-23 20:29N 38°26' W 009°06'0 0.0
2017-Apr-23 19:59N 38°26' W 009°06'0 0.0
2017-Apr-23 19:29N 38°26' W 009°06'0 0.0
2017-Apr-23 18:56N 38°26' W 009°06'0 0.0
2017-Apr-23 18:29N 38°26' W 009°06'0 0.0
2017-Apr-23 17:59N 38°26' W 009°06'0 0.0
2017-Apr-23 17:26N 38°26' W 009°06'0 0.0
2017-Apr-23 16:59N 38°26' W 009°06'0 0.0
2017-Apr-23 16:26N 38°26' W 009°06'0 0.1
2017-Apr-23 15:59N 38°26' W 009°06'0 0.0
2017-Apr-23 15:30N 38°26' W 009°06'1 2.0
2017-Apr-23 15:00N 38°25' W 009°06'2 2.2
2017-Apr-23 14:00N 38°23' W 009°08'0 0.8
2017-Apr-23 13:30N 38°23' W 009°08'1 2.1
2017-Apr-23 13:00N 38°23' W 009°09'3 6.4
2017-Apr-23 12:30N 38°22' W 009°13'3 5.6
2017-Apr-23 12:00N 38°24' W 009°16'3 6.6
2017-Apr-23 11:30N 38°27' W 009°18'3 6.9
2017-Apr-23 11:00N 38°30' W 009°19'3 6.7
2017-Apr-23 10:30N 38°34' W 009°20'2 3.1
2017-Apr-23 10:00N 38°35' W 009°21'3 6.7
2017-Apr-23 09:30N 38°39' W 009°21'4 7.0
2017-Apr-23 09:00N 38°41' W 009°17'4 7.3
2017-Apr-23 08:30N 38°41' W 009°12'4 7.2
2017-Apr-23 08:00N 38°42' W 009°08'2 0.0
2017-Apr-21 16:55N 38°40' W 009°09'0 0.7
2017-Apr-21 16:30N 38°40' W 009°09'2 3.4
2017-Apr-21 16:01N 38°42' W 009°08'3 5.2
2017-Apr-21 15:28N 38°41' W 009°12'3 5.0
2017-Apr-21 14:58N 38°41' W 009°15'2 5.1
2017-Apr-21 14:29N 38°41' W 009°18'7 7.2
2017-Apr-21 13:30N 38°35' W 009°23'0 0.6
2017-Apr-21 13:01N 38°35' W 009°23'1 1.7
2017-Apr-21 12:30N 38°35' W 009°22'2 5.0
2017-Apr-21 12:00N 38°33' W 009°21'3 5.8
2017-Apr-21 11:30N 38°30' W 009°20'3 5.8
2017-Apr-21 11:00N 38°28' W 009°18'4 7.8
2017-Apr-21 10:31N 38°24' W 009°16'2 3.4
2017-Apr-21 10:01N 38°22' W 009°16'2 3.4
2017-Apr-21 09:30N 38°22' W 009°13'4 7.8
2017-Apr-21 09:00N 38°23' W 009°08'3 5.5
2017-Apr-21 08:29N 38°25' W 009°06'1 1.1
2017-Apr-21 07:50N 38°26' W 009°06'0 0.0
2017-Apr-21 07:26N 38°26' W 009°06'0 0.0
2017-Apr-21 06:56N 38°26' W 009°06'0 0.0
2017-Apr-21 06:29N 38°26' W 009°06'0 0.0
2017-Apr-21 05:56N 38°26' W 009°06'0 0.0
2017-Apr-21 05:29N 38°26' W 009°06'0 0.0
2017-Apr-21 04:59N 38°26' W 009°06'0 0.0
2017-Apr-21 04:29N 38°26' W 009°06'0 0.0
2017-Apr-21 03:59N 38°26' W 009°06'0 0.0
2017-Apr-21 03:29N 38°26' W 009°06'0 0.1
2017-Apr-21 02:59N 38°26' W 009°06'0 0.0
2017-Apr-21 02:29N 38°26' W 009°06'0 0.0
2017-Apr-21 01:56N 38°26' W 009°06'0 0.1
2017-Apr-21 01:29N 38°26' W 009°06'0 0.0
2017-Apr-21 00:59N 38°26' W 009°06'0 0.0
2017-Apr-21 00:29N 38°26' W 009°06'0 0.1
2017-Apr-20 23:59N 38°26' W 009°06'0 0.0
2017-Apr-20 23:29N 38°26' W 009°06'0 0.0
2017-Apr-20 22:59N 38°26' W 009°06'0 0.0
2017-Apr-20 22:29N 38°26' W 009°06'0 0.0
2017-Apr-20 21:59N 38°26' W 009°06'0 0.0
2017-Apr-20 21:29N 38°26' W 009°06'0 0.0
2017-Apr-20 20:59N 38°26' W 009°06'0 0.0
2017-Apr-20 20:26N 38°26' W 009°06'0 0.0
2017-Apr-20 19:56N 38°26' W 009°06'0 0.0
2017-Apr-20 19:29N 38°26' W 009°06'0 0.0
2017-Apr-20 18:59N 38°26' W 009°06'0 0.0
2017-Apr-20 18:26N 38°26' W 009°06'0 0.2
2017-Apr-20 17:59N 38°26' W 009°06'0 0.0
2017-Apr-20 17:29N 38°26' W 009°06'0 0.0
2017-Apr-20 16:59N 38°26' W 009°06'0 0.0
2017-Apr-20 16:29N 38°26' W 009°06'0 0.1
2017-Apr-20 15:59N 38°26' W 009°06'0 0.0
2017-Apr-20 03:25N 38°26' W 009°06'0 0.0
2017-Apr-20 02:58N 38°26' W 009°06'0 0.0
2017-Apr-20 02:22N 38°26' W 009°06'0 0.0
2017-Apr-20 01:58N 38°26' W 009°06'0 0.0
2017-Apr-20 01:25N 38°26' W 009°06'0 0.0
2017-Apr-20 00:55N 38°26' W 009°06'0 0.0
2017-Apr-20 00:28N 38°26' W 009°06'0 0.0
2017-Apr-19 23:58N 38°26' W 009°06'0 0.0
2017-Apr-19 23:28N 38°26' W 009°06'0 0.0
2017-Apr-19 22:49N 38°26' W 009°06'0 0.0
2017-Apr-19 22:30N 38°26' W 009°06'0 0.0
2017-Apr-19 22:00N 38°26' W 009°06'0 0.0
2017-Apr-19 21:30N 38°26' W 009°06'0 0.0
2017-Apr-19 21:00N 38°26' W 009°06'0 0.0
2017-Apr-19 20:30N 38°26' W 009°06'0 0.0
2017-Apr-19 20:00N 38°26' W 009°06'0 0.0
2017-Apr-19 19:09N 38°26' W 009°06'0 0.0
2017-Apr-19 18:57N 38°26' W 009°06'0 0.0
2017-Apr-19 18:30N 38°26' W 009°06'0 0.0
2017-Apr-19 17:51N 38°26' W 009°06'0 0.0
2017-Apr-19 17:21N 38°26' W 009°06'0 0.0
2017-Apr-19 17:00N 38°26' W 009°06'0 0.0
2017-Apr-19 16:24N 38°26' W 009°06'0 0.0
2017-Apr-19 16:00N 38°26' W 009°06'1 1.8
2017-Apr-19 15:30N 38°25' W 009°06'1 2.1
2017-Apr-19 15:00N 38°24' W 009°06'1 1.8
2017-Apr-19 14:30N 38°23' W 009°07'5 5.3
2017-Apr-19 13:30N 38°22' W 009°13'2 3.2
2017-Apr-19 13:00N 38°23' W 009°15'3 5.6
2017-Apr-19 12:30N 38°25' W 009°18'3 6.5
2017-Apr-19 12:00N 38°27' W 009°20'3 6.3
2017-Apr-19 11:30N 38°30' W 009°23'3 5.7
2017-Apr-19 11:00N 38°32' W 009°26'3 5.7
2017-Apr-19 10:30N 38°34' W 009°24'4 7.1
2017-Apr-19 10:00N 38°37' W 009°21'4 8.5
2017-Apr-19 09:30N 38°40' W 009°18'3 5.7
2017-Apr-19 08:59N 38°41' W 009°14'2 4.9
2017-Apr-19 08:29N 38°41' W 009°11'3 5.7
2017-Apr-19 08:00N 38°41' W 009°08'1 2.2
2017-Apr-19 07:21N 38°40' W 009°09'  
Track history (hours):
 
Tides and Currents Weather Stations Pressure Air Temp Water Temp Dewpoint Dewpoint Depression Visibility Wind Speed Wind Dir Waves Ship Positions

Sagres (Portugal)

Last reported at 2017-Apr-26 14:42 UTC. Time now 2017-Apr-26 15:37 UTC.
Position N 38°42' W 009°10'.

Length 90 m; draft 5 m.

Type: Sailing vessel. MMSI: 263141000.

Date/timePositionNaut miles runAvg speedWind from/ knotsBaromVisibWave heightAir tempDewpointWater temp
2017-Apr-26 14:42N 38°42' W 009°10'0 0.0
2017-Apr-24 14:32N 38°42' W 009°10'0 0.0
2017-Apr-24 14:26N 38°42' W 009°10'2 1.7
2017-Apr-24 13:31N 38°42' W 009°08'3 6.2
2017-Apr-24 13:00N 38°41' W 009°12'5 9.6
2017-Apr-24 12:31N 38°41' W 009°18'5 9.3
2017-Apr-24 12:01N 38°37' W 009°22'2 3.8
2017-Apr-24 11:30N 38°35' W 009°22'1 1.9
2017-Apr-24 11:00N 38°36' W 009°21'2 4.9
2017-Apr-24 10:31N 38°34' W 009°21'3 5.3
2017-Apr-24 10:00N 38°31' W 009°20'2 4.0
2017-Apr-24 09:31N 38°29' W 009°19'3 7.0
2017-Apr-24 09:01N 38°26' W 009°17'4 7.7
2017-Apr-24 08:31N 38°23' W 009°15'4 8.7
2017-Apr-24 08:00N 38°23' W 009°09'3 6.7
2017-Apr-24 07:31N 38°26' W 009°06'0 0.2
2017-Apr-24 06:59N 38°26' W 009°06'0 0.0
2017-Apr-24 06:26N 38°26' W 009°06'0 0.0
2017-Apr-24 05:59N 38°26' W 009°06'0 0.0
2017-Apr-24 05:29N 38°26' W 009°06'0 0.0
2017-Apr-24 04:59N 38°26' W 009°06'0 0.0
2017-Apr-24 04:29N 38°26' W 009°06'0 0.0
2017-Apr-24 03:56N 38°26' W 009°06'0 0.0
2017-Apr-24 03:29N 38°26' W 009°06'0 0.0
2017-Apr-24 02:56N 38°26' W 009°06'0 0.0
2017-Apr-24 02:29N 38°26' W 009°06'0 0.0
2017-Apr-24 01:59N 38°26' W 009°06'0 0.0
2017-Apr-24 01:29N 38°26' W 009°06'0 0.0
2017-Apr-24 00:59N 38°26' W 009°06'0 0.0
2017-Apr-24 00:29N 38°26' W 009°06'0 0.0
2017-Apr-23 23:56N 38°26' W 009°06'0 0.0
2017-Apr-23 23:29N 38°26' W 009°06'0 0.1
2017-Apr-23 22:59N 38°26' W 009°06'0 0.0
2017-Apr-23 22:29N 38°26' W 009°06'0 0.0
2017-Apr-23 21:56N 38°26' W 009°06'0 0.1
2017-Apr-23 21:29N 38°26' W 009°06'0 0.0
2017-Apr-23 20:59N 38°26' W 009°06'0 0.0
2017-Apr-23 20:29N 38°26' W 009°06'0 0.0
2017-Apr-23 19:59N 38°26' W 009°06'0 0.0
2017-Apr-23 19:29N 38°26' W 009°06'0 0.0
2017-Apr-23 18:56N 38°26' W 009°06'0 0.0
2017-Apr-23 18:29N 38°26' W 009°06'0 0.0
2017-Apr-23 17:59N 38°26' W 009°06'0 0.0
2017-Apr-23 17:26N 38°26' W 009°06'0 0.0
2017-Apr-23 16:59N 38°26' W 009°06'0 0.0
2017-Apr-23 16:26N 38°26' W 009°06'0 0.1
2017-Apr-23 15:59N 38°26' W 009°06'0 0.0
2017-Apr-23 15:30N 38°26' W 009°06'1 2.0
2017-Apr-23 15:00N 38°25' W 009°06'2 2.2
2017-Apr-23 14:00N 38°23' W 009°08'0 0.8
2017-Apr-23 13:30N 38°23' W 009°08'1 2.1
2017-Apr-23 13:00N 38°23' W 009°09'3 6.4
2017-Apr-23 12:30N 38°22' W 009°13'3 5.6
2017-Apr-23 12:00N 38°24' W 009°16'3 6.6
2017-Apr-23 11:30N 38°27' W 009°18'3 6.9
2017-Apr-23 11:00N 38°30' W 009°19'3 6.7
2017-Apr-23 10:30N 38°34' W 009°20'2 3.1
2017-Apr-23 10:00N 38°35' W 009°21'3 6.7
2017-Apr-23 09:30N 38°39' W 009°21'4 7.0
2017-Apr-23 09:00N 38°41' W 009°17'4 7.3
2017-Apr-23 08:30N 38°41' W 009°12'4 7.2
2017-Apr-23 08:00N 38°42' W 009°08'2 0.0
2017-Apr-21 16:55N 38°40' W 009°09'0 0.7
2017-Apr-21 16:30N 38°40' W 009°09'2 3.4
2017-Apr-21 16:01N 38°42' W 009°08'3 5.2
2017-Apr-21 15:28N 38°41' W 009°12'3 5.0
2017-Apr-21 14:58N 38°41' W 009°15'2 5.1
2017-Apr-21 14:29N 38°41' W 009°18'7 7.2
2017-Apr-21 13:30N 38°35' W 009°23'0 0.6
2017-Apr-21 13:01N 38°35' W 009°23'1 1.7
2017-Apr-21 12:30N 38°35' W 009°22'2 5.0
2017-Apr-21 12:00N 38°33' W 009°21'3 5.8
2017-Apr-21 11:30N 38°30' W 009°20'3 5.8
2017-Apr-21 11:00N 38°28' W 009°18'4 7.8
2017-Apr-21 10:31N 38°24' W 009°16'2 3.4
2017-Apr-21 10:01N 38°22' W 009°16'2 3.4
2017-Apr-21 09:30N 38°22' W 009°13'4 7.8
2017-Apr-21 09:00N 38°23' W 009°08'3 5.5
2017-Apr-21 08:29N 38°25' W 009°06'1 1.1
2017-Apr-21 07:50N 38°26' W 009°06'0 0.0
2017-Apr-21 07:26N 38°26' W 009°06'0 0.0
2017-Apr-21 06:56N 38°26' W 009°06'0 0.0
2017-Apr-21 06:29N 38°26' W 009°06'0 0.0
2017-Apr-21 05:56N 38°26' W 009°06'0 0.0
2017-Apr-21 05:29N 38°26' W 009°06'0 0.0
2017-Apr-21 04:59N 38°26' W 009°06'0 0.0
2017-Apr-21 04:29N 38°26' W 009°06'0 0.0
2017-Apr-21 03:59N 38°26' W 009°06'0 0.0
2017-Apr-21 03:29N 38°26' W 009°06'0 0.1
2017-Apr-21 02:59N 38°26' W 009°06'0 0.0
2017-Apr-21 02:29N 38°26' W 009°06'0 0.0
2017-Apr-21 01:56N 38°26' W 009°06'0 0.1
2017-Apr-21 01:29N 38°26' W 009°06'0 0.0
2017-Apr-21 00:59N 38°26' W 009°06'0 0.0
2017-Apr-21 00:29N 38°26' W 009°06'0 0.1
2017-Apr-20 23:59N 38°26' W 009°06'0 0.0
2017-Apr-20 23:29N 38°26' W 009°06'0 0.0
2017-Apr-20 22:59N 38°26' W 009°06'0 0.0
2017-Apr-20 22:29N 38°26' W 009°06'0 0.0
2017-Apr-20 21:59N 38°26' W 009°06'0 0.0
2017-Apr-20 21:29N 38°26' W 009°06'0 0.0
2017-Apr-20 20:59N 38°26' W 009°06'0 0.0
2017-Apr-20 20:26N 38°26' W 009°06'0 0.0
2017-Apr-20 19:56N 38°26' W 009°06'0 0.0
2017-Apr-20 19:29N 38°26' W 009°06'0 0.0
2017-Apr-20 18:59N 38°26' W 009°06'0 0.0
2017-Apr-20 18:26N 38°26' W 009°06'0 0.2
2017-Apr-20 17:59N 38°26' W 009°06'0 0.0
2017-Apr-20 17:29N 38°26' W 009°06'0 0.0
2017-Apr-20 16:59N 38°26' W 009°06'0 0.0
2017-Apr-20 16:29N 38°26' W 009°06'0 0.1
2017-Apr-20 15:59N 38°26' W 009°06'0 0.0
2017-Apr-20 03:25N 38°26' W 009°06'0 0.0
2017-Apr-20 02:58N 38°26' W 009°06'0 0.0
2017-Apr-20 02:22N 38°26' W 009°06'0 0.0
2017-Apr-20 01:58N 38°26' W 009°06'0 0.0
2017-Apr-20 01:25N 38°26' W 009°06'0 0.0
2017-Apr-20 00:55N 38°26' W 009°06'0 0.0
2017-Apr-20 00:28N 38°26' W 009°06'0 0.0
2017-Apr-19 23:58N 38°26' W 009°06'0 0.0
2017-Apr-19 23:28N 38°26' W 009°06'0 0.0
2017-Apr-19 22:49N 38°26' W 009°06'0 0.0
2017-Apr-19 22:30N 38°26' W 009°06'0 0.0
2017-Apr-19 22:00N 38°26' W 009°06'0 0.0
2017-Apr-19 21:30N 38°26' W 009°06'0 0.0
2017-Apr-19 21:00N 38°26' W 009°06'0 0.0
2017-Apr-19 20:30N 38°26' W 009°06'0 0.0
2017-Apr-19 20:00N 38°26' W 009°06'0 0.0
2017-Apr-19 19:09N 38°26' W 009°06'0 0.0
2017-Apr-19 18:57N 38°26' W 009°06'0 0.0
2017-Apr-19 18:30N 38°26' W 009°06'0 0.0
2017-Apr-19 17:51N 38°26' W 009°06'0 0.0
2017-Apr-19 17:21N 38°26' W 009°06'0 0.0
2017-Apr-19 17:00N 38°26' W 009°06'0 0.0
2017-Apr-19 16:24N 38°26' W 009°06'0 0.0
2017-Apr-19 16:00N 38°26' W 009°06'1 1.8
2017-Apr-19 15:30N 38°25' W 009°06'1 2.1
2017-Apr-19 15:00N 38°24' W 009°06'1 1.8
2017-Apr-19 14:30N 38°23' W 009°07'5 5.3
2017-Apr-19 13:30N 38°22' W 009°13'2 3.2
2017-Apr-19 13:00N 38°23' W 009°15'3 5.6
2017-Apr-19 12:30N 38°25' W 009°18'3 6.5
2017-Apr-19 12:00N 38°27' W 009°20'3 6.3
2017-Apr-19 11:30N 38°30' W 009°23'3 5.7
2017-Apr-19 11:00N 38°32' W 009°26'3 5.7
2017-Apr-19 10:30N 38°34' W 009°24'4 7.1
2017-Apr-19 10:00N 38°37' W 009°21'4 8.5
2017-Apr-19 09:30N 38°40' W 009°18'3 5.7
2017-Apr-19 08:59N 38°41' W 009°14'2 4.9
2017-Apr-19 08:29N 38°41' W 009°11'3 5.7
2017-Apr-19 08:00N 38°41' W 009°08'1 2.2
2017-Apr-19 07:21N 38°40' W 009°09'  

Dump ship's entire track history